createdAt,value
2022-07-26T00:00:14.592Z,17.72
2022-07-26T00:02:47.902Z,17.12
2022-07-26T00:05:16.647Z,17.23
2022-07-26T00:07:44.728Z,17.45
2022-07-26T00:10:12.215Z,17.62
2022-07-26T00:12:39.702Z,17.84
2022-07-26T00:15:09.549Z,17.60
2022-07-26T00:17:36.227Z,17.05
2022-07-26T00:20:04.262Z,17.85
2022-07-26T00:22:30.860Z,17.55
2022-07-26T00:24:57.501Z,17.11
2022-07-26T00:27:24.195Z,16.80
2022-07-26T00:29:52.487Z,16.74
2022-07-26T00:32:19.135Z,16.52
2022-07-26T00:34:45.930Z,16.71
2022-07-26T00:37:15.979Z,16.71
2022-07-26T00:39:46.705Z,16.25
2022-07-26T00:42:13.280Z,16.29
2022-07-26T00:44:49.048Z,16.14
2022-07-26T00:47:16.046Z,16.36
2022-07-26T00:49:43.386Z,15.60
2022-07-26T00:52:11.141Z,16.08
2022-07-26T00:54:39.477Z,15.71
2022-07-26T00:57:06.582Z,15.89
2022-07-26T00:59:33.330Z,15.63
2022-07-26T01:02:00.244Z,15.76
2022-07-26T01:04:26.986Z,16.16
2022-07-26T01:06:54.408Z,15.72
2022-07-26T01:09:21.420Z,15.77
2022-07-26T01:11:48.296Z,15.31
2022-07-26T01:14:15.513Z,15.78
2022-07-26T01:16:42.154Z,15.15
2022-07-26T01:19:08.829Z,15.34
2022-07-26T01:21:35.623Z,15.57
2022-07-26T01:24:02.497Z,14.80
2022-07-26T01:26:29.182Z,14.48
2022-07-26T01:28:55.988Z,15.52
2022-07-26T01:31:22.898Z,15.35
2022-07-26T01:33:50.551Z,15.64
2022-07-26T01:36:17.491Z,15.60
2022-07-26T01:38:44.671Z,15.31
2022-07-26T01:41:11.920Z,15.98
2022-07-26T01:43:38.783Z,15.09
2022-07-26T01:46:08.100Z,16.03
2022-07-26T01:48:35.269Z,15.78
2022-07-26T01:51:02.236Z,15.85
2022-07-26T01:53:28.872Z,15.48
2022-07-26T01:55:55.492Z,15.00
2022-07-26T01:58:22.576Z,15.16
2022-07-26T02:00:49.757Z,15.51
2022-07-26T02:03:16.513Z,14.93
2022-07-26T02:05:43.303Z,15.30
2022-07-26T02:08:11.064Z,15.50
2022-07-26T02:10:37.865Z,15.06
2022-07-26T02:13:04.500Z,15.64
2022-07-26T02:15:34.541Z,15.19
2022-07-26T02:18:01.108Z,15.19
2022-07-26T02:20:27.803Z,15.80
2022-07-26T02:22:54.385Z,15.29
2022-07-26T02:25:21.017Z,15.82
2022-07-26T02:27:47.649Z,15.79
2022-07-26T02:30:14.321Z,15.75
2022-07-26T02:32:43.316Z,15.30
2022-07-26T02:35:10.788Z,15.61
2022-07-26T02:37:40.831Z,15.96
2022-07-26T02:40:14.310Z,15.37
2022-07-26T02:42:45.390Z,15.55
2022-07-26T02:45:11.981Z,15.79
2022-07-26T02:47:49.874Z,15.78
2022-07-26T02:50:18.783Z,16.11
2022-07-26T02:52:45.804Z,16.03
2022-07-26T02:55:12.695Z,15.97
2022-07-26T02:57:45.462Z,15.99
2022-07-26T03:00:20.993Z,15.88
2022-07-26T03:02:48.635Z,15.64
2022-07-26T03:05:15.267Z,16.37
2022-07-26T03:07:42.010Z,15.96
2022-07-26T03:10:09.040Z,16.02
2022-07-26T03:12:35.713Z,15.84
2022-07-26T03:15:02.550Z,15.67
2022-07-26T03:17:29.262Z,16.28
2022-07-26T03:22:43.241Z,16.15
2022-07-26T03:25:09.829Z,15.82
2022-07-26T03:27:36.517Z,15.84
2022-07-26T03:30:04.130Z,15.45
2022-07-26T03:32:30.825Z,16.51
2022-07-26T03:34:57.431Z,16.45
2022-07-26T03:37:24.502Z,15.33
2022-07-26T03:39:51.106Z,15.60
2022-07-26T03:42:17.853Z,15.57
2022-07-26T03:44:44.473Z,15.83
2022-07-26T03:47:11.226Z,15.70
2022-07-26T03:49:37.915Z,15.47
2022-07-26T03:52:04.888Z,16.28
2022-07-26T03:54:31.798Z,15.82
2022-07-26T03:56:58.621Z,15.87
2022-07-26T03:59:25.256Z,15.82
2022-07-26T04:01:52.168Z,15.18
2022-07-26T04:04:19.180Z,15.38
2022-07-26T04:06:52.098Z,15.59
2022-07-26T04:09:19.595Z,15.19
2022-07-26T04:11:46.282Z,15.15
2022-07-26T04:17:03.914Z,15.08
2022-07-26T04:19:30.606Z,15.54
2022-07-26T04:21:57.214Z,15.14
2022-07-26T04:24:25.357Z,15.02
2022-07-26T04:26:52.722Z,15.44
2022-07-26T04:29:19.293Z,14.24
2022-07-26T04:31:46.054Z,14.88
2022-07-26T04:36:56.728Z,14.95
2022-07-26T04:39:23.299Z,14.71
2022-07-26T04:41:50.412Z,15.10
2022-07-26T04:44:17.127Z,15.87
2022-07-26T04:46:45.282Z,15.42
2022-07-26T04:49:12.738Z,16.25
2022-07-26T04:51:39.476Z,16.26
2022-07-26T04:54:06.398Z,15.91
2022-07-26T04:56:33.379Z,16.11
2022-07-26T04:59:00.196Z,16.42
2022-07-26T05:01:26.961Z,16.63
2022-07-26T05:03:53.558Z,17.15
2022-07-26T05:06:20.288Z,17.12
2022-07-26T05:08:46.839Z,17.16
2022-07-26T05:11:13.638Z,17.18
2022-07-26T05:13:40.692Z,17.51
2022-07-26T05:16:11.613Z,17.84
2022-07-26T05:18:49.981Z,17.93
2022-07-26T05:21:29.757Z,17.93
2022-07-26T05:23:59.878Z,18.38
2022-07-26T05:26:27.763Z,18.48
2022-07-26T05:28:56.558Z,18.69
2022-07-26T05:31:29.186Z,18.81
2022-07-26T05:34:01.715Z,19.18
2022-07-26T05:36:41.153Z,19.42
2022-07-26T05:47:52.418Z,18.95
2022-07-26T05:50:19.710Z,19.25
2022-07-26T05:52:46.346Z,18.99
2022-07-26T05:55:13.242Z,18.90
2022-07-26T05:57:39.893Z,19.20
2022-07-26T06:00:07.979Z,19.56
2022-07-26T06:02:39.192Z,19.35
2022-07-26T06:05:06.533Z,19.19
2022-07-26T06:07:33.407Z,19.71
2022-07-26T06:10:00.210Z,19.55
2022-07-26T06:12:27.013Z,19.80
2022-07-26T06:14:53.622Z,19.56
2022-07-26T06:17:20.294Z,19.42
2022-07-26T06:19:47.894Z,19.31
2022-07-26T06:22:15.395Z,18.54
2022-07-26T06:24:42.079Z,19.76
2022-07-26T06:27:08.686Z,19.93
2022-07-26T06:29:35.369Z,20.03
2022-07-26T06:32:02.219Z,20.17
2022-07-26T06:34:29.516Z,20.65
2022-07-26T06:36:56.129Z,20.84
2022-07-26T06:39:25.198Z,20.07
2022-07-26T06:41:51.924Z,19.95
2022-07-26T06:44:21.850Z,20.17
2022-07-26T06:46:48.580Z,20.15
2022-07-26T06:49:19.384Z,20.94
2022-07-26T06:51:50.177Z,20.65
2022-07-26T06:54:16.807Z,20.94
2022-07-26T06:56:43.687Z,21.01
2022-07-26T06:59:10.298Z,21.44
2022-07-26T07:01:58.272Z,21.45
2022-07-26T07:04:23.982Z,21.42
2022-07-26T07:06:50.711Z,21.31
2022-07-26T07:09:17.379Z,21.44
2022-07-26T07:11:45.969Z,21.32
2022-07-26T07:14:15.711Z,21.62
2022-07-26T07:16:42.616Z,21.44
2022-07-26T07:19:09.408Z,21.43
2022-07-26T07:21:36.068Z,21.11
2022-07-26T07:24:02.799Z,20.85
2022-07-26T07:26:29.606Z,20.72
2022-07-26T07:28:56.457Z,21.33
2022-07-26T07:31:30.219Z,22.06
2022-07-26T07:33:57.937Z,22.11
2022-07-26T07:36:26.831Z,22.31
2022-07-26T07:38:54.197Z,22.35
2022-07-26T07:41:21.746Z,21.75
2022-07-26T07:43:48.409Z,21.95
2022-07-26T07:46:15.044Z,21.74
2022-07-26T07:48:46.789Z,21.71
2022-07-26T07:51:14.708Z,22.00
2022-07-26T07:53:56.973Z,21.98
2022-07-26T07:56:25.398Z,21.74
2022-07-26T07:58:52.398Z,22.05
2022-07-26T08:01:19.535Z,21.97
2022-07-26T08:03:50.667Z,22.30
2022-07-26T08:06:17.716Z,22.94
2022-07-26T08:08:44.697Z,22.48
2022-07-26T08:11:12.802Z,22.38
2022-07-26T08:13:39.760Z,21.85
2022-07-26T08:16:09.359Z,22.90
2022-07-26T08:18:39.603Z,23.32
2022-07-26T08:21:15.824Z,22.85
2022-07-26T08:23:42.550Z,22.55
2022-07-26T08:26:09.818Z,22.85
2022-07-26T08:28:59.885Z,23.31
2022-07-26T08:31:23.320Z,22.93
2022-07-26T08:33:49.909Z,21.88
2022-07-26T08:36:17.101Z,21.99
2022-07-26T08:38:44.623Z,22.50
2022-07-26T08:41:14.301Z,21.92
2022-07-26T08:43:52.260Z,22.20
2022-07-26T08:46:25.285Z,22.06
2022-07-26T08:48:53.550Z,22.43
2022-07-26T08:51:21.874Z,22.39
2022-07-26T08:53:49.373Z,21.93
2022-07-26T08:56:15.981Z,22.22
2022-07-26T08:58:42.685Z,21.58
2022-07-26T09:01:12.112Z,22.80
2022-07-26T09:03:40.165Z,23.37
2022-07-26T09:06:20.528Z,23.72
2022-07-26T09:08:50.139Z,22.98
2022-07-26T09:11:46.361Z,23.09
2022-07-26T09:14:13.035Z,22.58
2022-07-26T09:16:40.989Z,22.67
2022-07-26T09:19:19.604Z,22.77
2022-07-26T09:21:49.079Z,22.38
2022-07-26T09:24:39.087Z,23.00
2022-07-26T09:27:07.973Z,23.49
2022-07-26T09:29:49.069Z,23.29
2022-07-26T09:32:26.495Z,23.74
2022-07-26T09:34:58.814Z,24.18
2022-07-26T09:37:42.770Z,23.25
2022-07-26T09:40:19.311Z,24.01
2022-07-26T09:43:00.065Z,24.03
2022-07-26T09:45:28.320Z,23.57
2022-07-26T09:47:55.464Z,22.90
2022-07-26T09:50:24.806Z,22.52
2022-07-26T09:53:08.114Z,22.91
2022-07-26T09:55:53.552Z,22.65
2022-07-26T09:58:24.311Z,21.97
2022-07-26T10:00:52.775Z,21.42
2022-07-26T10:03:19.789Z,18.33
2022-07-26T10:05:48.068Z,21.10
2022-07-26T10:08:15.502Z,18.87
2022-07-26T10:10:48.195Z,20.35
2022-07-26T10:13:18.798Z,20.67
2022-07-26T10:15:51.094Z,18.48
2022-07-26T10:18:38.077Z,20.75
2022-07-26T10:21:28.540Z,19.46
2022-07-26T10:24:00.169Z,19.57
2022-07-26T10:26:33.116Z,20.52
2022-07-26T10:29:25.868Z,21.06
2022-07-26T10:31:59.230Z,20.89
2022-07-26T10:34:31.374Z,19.68
2022-07-26T10:37:04.493Z,20.71
2022-07-26T10:39:33.396Z,21.25
2022-07-26T10:42:03.148Z,16.71
2022-07-26T10:44:31.871Z,19.95
2022-07-26T10:47:03.593Z,20.55
2022-07-26T10:49:38.350Z,15.52
2022-07-26T10:52:26.818Z,16.89
2022-07-26T10:54:56.758Z,20.91
2022-07-26T10:57:24.781Z,19.90
2022-07-26T10:59:56.274Z,20.87
2022-07-26T11:02:30.056Z,20.82
2022-07-26T11:05:00.773Z,21.41
2022-07-26T11:07:28.731Z,20.61
2022-07-26T11:10:00.071Z,21.10
2022-07-26T11:12:28.602Z,21.51
2022-07-26T11:14:55.410Z,21.28
2022-07-26T11:17:27.434Z,21.96
2022-07-26T11:19:55.545Z,21.63
2022-07-26T11:22:22.784Z,21.68
2022-07-26T11:24:49.480Z,21.63
2022-07-26T11:27:16.077Z,20.83
2022-07-26T11:29:42.804Z,21.27
2022-07-26T11:32:23.723Z,21.19
2022-07-26T11:35:01.062Z,21.40
2022-07-26T11:37:28.328Z,21.38
2022-07-26T11:39:54.923Z,20.95
2022-07-26T11:42:21.816Z,20.66
2022-07-26T11:44:50.394Z,20.82
2022-07-26T11:47:25.545Z,18.12
2022-07-26T11:50:21.617Z,17.07
2022-07-26T11:52:43.733Z,20.19
2022-07-26T11:55:14.221Z,19.65
2022-07-26T11:57:41.384Z,19.10
2022-07-26T12:00:08.883Z,21.34
2022-07-26T12:02:38.854Z,21.50
2022-07-26T12:05:20.737Z,21.76
2022-07-26T12:07:58.196Z,22.55
2022-07-26T12:10:25.786Z,22.56
2022-07-26T12:13:13.907Z,22.80
2022-07-26T12:15:45.739Z,22.37
2022-07-26T12:18:21.930Z,22.13
2022-07-26T12:21:09.571Z,22.56
2022-07-26T12:23:54.574Z,21.51
2022-07-26T12:26:30.349Z,22.39
2022-07-26T12:28:58.081Z,21.81
2022-07-26T12:31:30.045Z,22.26
2022-07-26T12:33:57.323Z,20.80
2022-07-26T12:36:27.424Z,21.63
2022-07-26T12:38:58.269Z,21.61
2022-07-26T12:41:39.115Z,21.79
2022-07-26T12:44:07.334Z,21.39
2022-07-26T12:46:35.865Z,20.33
2022-07-26T12:49:04.434Z,22.37
2022-07-26T12:51:31.207Z,21.61
2022-07-26T12:53:57.908Z,22.23
2022-07-26T12:56:24.537Z,22.11
2022-07-26T12:58:51.190Z,21.63
2022-07-26T13:01:17.939Z,21.63
2022-07-26T13:03:44.740Z,21.98
2022-07-26T13:06:11.384Z,21.76
2022-07-26T13:08:38.186Z,21.99
2022-07-26T13:11:04.876Z,22.08
2022-07-26T13:13:31.513Z,22.18
2022-07-26T13:15:58.722Z,21.92
2022-07-26T13:18:25.578Z,21.81
2022-07-26T13:20:52.153Z,22.08
2022-07-26T13:23:21.589Z,22.71
2022-07-26T13:25:49.667Z,22.58
2022-07-26T13:28:17.185Z,22.47
2022-07-26T13:30:44.264Z,22.67
2022-07-26T13:33:11.120Z,22.12
2022-07-26T13:35:37.677Z,21.97
2022-07-26T13:38:04.629Z,22.51
2022-07-26T13:40:33.984Z,22.60
2022-07-26T13:43:01.674Z,22.39
2022-07-26T13:45:29.789Z,22.40
2022-07-26T13:47:59.126Z,22.37
2022-07-26T13:50:27.428Z,22.23
2022-07-26T13:52:55.924Z,22.42
2022-07-26T13:55:25.223Z,22.00
2022-07-26T13:57:56.620Z,22.41
2022-07-26T14:00:28.864Z,22.16
2022-07-26T14:02:57.837Z,22.81
2022-07-26T14:05:25.449Z,22.79
2022-07-26T14:07:52.850Z,22.45
2022-07-26T14:10:20.129Z,22.43
2022-07-26T14:12:47.640Z,22.91
2022-07-26T14:15:21.154Z,21.96
2022-07-26T14:17:49.262Z,22.39
2022-07-26T14:20:16.178Z,22.26
2022-07-26T14:22:42.864Z,22.66
2022-07-26T14:25:09.832Z,22.36
2022-07-26T14:27:36.560Z,22.15
2022-07-26T14:30:04.550Z,22.20
2022-07-26T14:32:31.431Z,21.97
2022-07-26T14:34:59.113Z,22.52
2022-07-26T14:37:44.361Z,20.18
2022-07-26T14:40:14.861Z,18.38
2022-07-26T14:42:47.525Z,16.95
2022-07-26T14:45:15.177Z,18.20
2022-07-26T14:47:42.281Z,17.70
2022-07-26T14:50:10.645Z,17.91
2022-07-26T14:52:45.690Z,17.54
2022-07-26T14:55:13.791Z,17.64
2022-07-26T14:57:41.058Z,17.36
2022-07-26T15:00:11.210Z,17.37
2022-07-26T15:02:42.106Z,17.28
2022-07-26T15:05:10.670Z,17.42
2022-07-26T15:07:38.064Z,16.86
2022-07-26T15:10:05.997Z,17.27
2022-07-26T15:12:32.722Z,17.19
2022-07-26T15:14:59.687Z,17.42
2022-07-26T15:17:26.283Z,17.54
2022-07-26T15:19:53.130Z,17.34
2022-07-26T15:22:19.920Z,17.31
2022-07-26T15:24:46.667Z,17.14
2022-07-26T15:27:13.257Z,17.33
2022-07-26T15:29:40.061Z,17.58
2022-07-26T15:32:06.846Z,17.50
2022-07-26T15:34:33.788Z,17.89
2022-07-26T15:37:01.709Z,18.04
2022-07-26T15:39:28.382Z,18.15
2022-07-26T15:41:55.130Z,17.45
2022-07-26T15:44:23.735Z,18.05
2022-07-26T15:46:52.832Z,18.73
2022-07-26T15:49:19.975Z,18.34
2022-07-26T15:51:46.673Z,18.84
2022-07-26T15:54:15.173Z,18.75
2022-07-26T15:56:43.563Z,18.40
2022-07-26T15:59:10.283Z,18.76
2022-07-26T16:01:37.525Z,18.04
2022-07-26T16:32:33.932Z,17.39
2022-07-26T16:35:00.699Z,18.33
2022-07-26T16:37:27.347Z,18.80
2022-07-26T16:39:54.248Z,19.02
2022-07-26T16:42:21.933Z,18.60
2022-07-26T16:44:48.607Z,19.22
2022-07-26T16:47:15.402Z,19.45
2022-07-26T16:49:42.065Z,19.59
2022-07-26T16:52:08.939Z,19.62
2022-07-26T16:54:35.753Z,19.36
2022-07-26T16:57:02.591Z,18.87
2022-07-26T16:59:29.211Z,19.07
2022-07-26T17:01:56.118Z,19.57
2022-07-26T17:04:26.581Z,19.29
2022-07-26T17:07:22.311Z,18.46
2022-07-26T17:09:43.182Z,18.86
2022-07-26T17:12:12.259Z,19.36
2022-07-26T17:14:39.007Z,19.43
2022-07-26T17:17:05.617Z,19.10
2022-07-26T17:19:32.569Z,19.67
2022-07-26T17:21:59.230Z,19.05
2022-07-26T17:24:25.942Z,19.17
2022-07-26T17:26:52.776Z,19.44
2022-07-26T17:29:19.457Z,19.62
2022-07-26T17:31:46.111Z,19.81
2022-07-26T17:34:13.080Z,19.52
2022-07-26T17:36:39.718Z,19.03
2022-07-26T17:39:10.035Z,19.31
2022-07-26T17:41:42.603Z,18.42
2022-07-26T17:44:14.164Z,18.50
2022-07-26T17:46:41.138Z,18.35
2022-07-26T17:49:08.822Z,18.12
2022-07-26T17:51:35.564Z,18.27
2022-07-26T17:54:02.294Z,18.55
2022-07-26T17:56:29.763Z,18.64
2022-07-26T17:58:56.690Z,18.30
2022-07-26T18:01:23.720Z,18.66
2022-07-26T18:03:50.480Z,18.45
2022-07-26T18:06:17.615Z,18.33
2022-07-26T18:08:44.465Z,18.18
2022-07-26T18:11:11.124Z,18.12
2022-07-26T18:13:38.043Z,18.56
2022-07-26T18:16:06.242Z,18.20
2022-07-26T18:18:33.330Z,18.45
2022-07-26T18:20:59.964Z,18.42
2022-07-26T18:23:26.713Z,18.34
2022-07-26T18:25:53.359Z,18.24
2022-07-26T18:28:20.059Z,18.05
2022-07-26T18:30:46.779Z,18.12
2022-07-26T18:33:13.520Z,18.24
2022-07-26T18:35:40.649Z,18.58
2022-07-26T18:38:07.477Z,18.22
2022-07-26T18:40:36.011Z,18.28
2022-07-26T18:43:02.884Z,17.97
2022-07-26T18:45:29.465Z,17.86
2022-07-26T18:47:56.295Z,18.22
2022-07-26T18:50:23.118Z,18.33
2022-07-26T18:52:49.816Z,18.23
2022-07-26T18:55:16.557Z,18.34
2022-07-26T18:57:43.992Z,18.23
2022-07-26T19:00:14.323Z,18.67
2022-07-26T19:02:41.732Z,18.25
2022-07-26T19:05:08.751Z,18.16
2022-07-26T19:07:35.445Z,18.68
2022-07-26T19:10:02.082Z,18.42
2022-07-26T19:12:28.718Z,18.09
2022-07-26T19:14:55.361Z,17.82
2022-07-26T19:17:22.638Z,18.32
2022-07-26T19:19:49.257Z,18.56
2022-07-26T19:22:15.963Z,18.60
2022-07-26T19:24:42.570Z,18.71
2022-07-26T19:27:09.339Z,18.45
2022-07-26T19:29:37.748Z,18.71
2022-07-26T19:32:05.482Z,19.14
2022-07-26T19:34:32.076Z,18.61
2022-07-26T19:36:58.794Z,18.06
2022-07-26T19:39:25.829Z,17.76
2022-07-26T19:41:52.788Z,17.97
2022-07-26T19:44:20.137Z,17.91
2022-07-26T19:46:47.178Z,17.80
2022-07-26T19:49:15.023Z,17.73
2022-07-26T19:51:42.649Z,17.85
2022-07-26T19:54:09.698Z,17.38
2022-07-26T19:56:37.452Z,16.67
2022-07-26T19:59:04.040Z,16.52
2022-07-26T20:01:30.828Z,15.92
2022-07-26T20:03:57.463Z,15.68
2022-07-26T20:06:24.987Z,15.91
2022-07-26T20:08:51.643Z,15.97
2022-07-26T20:11:18.568Z,15.47
2022-07-26T20:13:46.103Z,15.38
2022-07-26T20:16:12.876Z,14.53
2022-07-26T20:18:39.512Z,15.38
2022-07-26T20:21:07.577Z,15.67
2022-07-26T20:23:34.168Z,15.06
2022-07-26T20:26:01.355Z,15.27
2022-07-26T20:28:27.940Z,15.39
2022-07-26T20:30:54.746Z,15.31
2022-07-26T20:33:22.144Z,15.62
2022-07-26T20:35:54.436Z,15.73
2022-07-26T20:38:21.776Z,15.86
2022-07-26T20:40:48.424Z,15.28
2022-07-26T20:43:15.019Z,15.72
2022-07-26T20:45:41.690Z,16.03
2022-07-26T20:48:08.984Z,16.24
2022-07-26T20:50:35.719Z,16.47
2022-07-26T20:53:03.291Z,16.49
2022-07-26T20:55:30.160Z,16.57
2022-07-26T20:57:56.960Z,16.75
2022-07-26T21:00:32.735Z,17.18
2022-07-26T21:02:59.842Z,17.05
2022-07-26T21:05:30.842Z,17.05
2022-07-26T21:07:59.962Z,17.14
2022-07-26T21:10:28.097Z,16.80
2022-07-26T21:12:55.031Z,16.72
2022-07-26T21:15:21.754Z,16.48
2022-07-26T21:17:48.629Z,16.02
2022-07-26T21:20:15.288Z,15.90
2022-07-26T21:22:44.294Z,16.07
2022-07-26T21:25:11.070Z,15.56
2022-07-26T21:27:38.472Z,15.78
2022-07-26T21:30:07.076Z,16.42
2022-07-26T21:32:35.361Z,16.29
2022-07-26T21:35:02.071Z,16.51
2022-07-26T21:37:28.929Z,16.11
2022-07-26T21:39:55.570Z,16.42
2022-07-26T21:42:27.761Z,16.23
2022-07-26T21:44:56.134Z,16.10
2022-07-26T21:47:28.585Z,16.45
2022-07-26T21:49:55.239Z,16.78
2022-07-26T21:52:21.837Z,16.62
2022-07-26T21:54:48.798Z,16.87
2022-07-26T21:57:15.438Z,16.45
2022-07-26T21:59:42.136Z,15.80
2022-07-26T22:02:08.866Z,16.57
2022-07-26T22:04:35.679Z,17.03
2022-07-26T22:07:02.375Z,17.21
2022-07-26T22:09:34.749Z,16.78
2022-07-26T22:12:04.186Z,16.53
2022-07-26T22:14:30.761Z,16.87
2022-07-26T22:16:57.442Z,16.51
2022-07-26T22:19:24.375Z,16.50
2022-07-26T22:21:51.109Z,16.47
2022-07-26T22:24:20.356Z,16.49
2022-07-26T22:26:47.204Z,16.24
2022-07-26T22:29:14.308Z,16.54
2022-07-26T22:31:41.472Z,16.38
2022-07-26T22:34:08.265Z,16.26
2022-07-26T22:36:34.893Z,16.18
2022-07-26T22:39:01.884Z,16.34
2022-07-26T22:41:31.708Z,16.22
2022-07-26T22:43:59.296Z,16.47
2022-07-26T22:46:39.881Z,15.61
2022-07-26T22:49:06.522Z,16.38
2022-07-26T22:51:39.055Z,16.32
2022-07-26T22:54:05.760Z,16.38
2022-07-26T22:56:32.406Z,15.31
2022-07-26T22:58:59.377Z,16.68
2022-07-26T23:01:26.178Z,16.22
2022-07-26T23:03:52.838Z,15.98
2022-07-26T23:06:23.849Z,15.26
2022-07-26T23:08:58.463Z,16.13
2022-07-26T23:11:25.185Z,16.20
2022-07-26T23:13:51.893Z,15.82
2022-07-26T23:16:26.596Z,15.75
2022-07-26T23:18:53.287Z,15.34
2022-07-26T23:21:20.055Z,16.37
2022-07-26T23:23:46.706Z,15.98
2022-07-26T23:26:13.361Z,16.03
2022-07-26T23:28:40.009Z,16.27
2022-07-26T23:31:11.825Z,16.08
2022-07-26T23:33:50.890Z,15.25
2022-07-26T23:36:24.485Z,15.84
2022-07-26T23:38:51.679Z,15.53
2022-07-26T23:41:18.276Z,15.56
2022-07-26T23:43:44.949Z,15.82
2022-07-26T23:46:11.571Z,15.77
2022-07-26T23:48:38.413Z,15.47
2022-07-26T23:51:05.380Z,15.88
2022-07-26T23:53:32.093Z,15.38
2022-07-26T23:55:58.687Z,15.28
2022-07-26T23:58:25.438Z,15.24
